Time;durP1;ratioP1;P1;durP2;ratioP2;P2;SDS_P1;SDS_P2;PMS_P1;PMS_P2;Temp;Humidity;BMP_temperature;BMP_pressure;BME280_temperature;BME280_humidity;BME280_pressure;Samples;Min_cycle;Max_cycle;Signal;HPM_P1;HPM_P2
2022/08/07 00:00:53;;;;;;;14.52;6.13;;;12.20;99.90;;;;;;5032506;28;20037;-86
2022/08/07 00:03:21;;;;;;;12.38;6.18;;;12.10;99.90;;;;;;5032884;28;20041;-86
2022/08/07 00:05:47;;;;;;;13.93;6.53;;;12.10;99.90;;;;;;5032678;28;20489;-86
2022/08/07 00:08:13;;;;;;;13.55;6.20;;;12.20;99.90;;;;;;5014617;28;20131;-85
2022/08/07 00:10:39;;;;;;;12.77;6.20;;;12.00;99.90;;;;;;5032868;28;20041;-86
2022/08/07 00:13:05;;;;;;;12.85;5.85;;;12.00;99.90;;;;;;5015087;28;20053;-86
2022/08/07 00:15:32;;;;;;;12.23;6.35;;;12.30;99.90;;;;;;5019556;28;20437;-86
2022/08/07 00:17:57;;;;;;;12.02;6.05;;;12.00;99.90;;;;;;5039911;28;20246;-86
2022/08/07 00:20:24;;;;;;;14.07;6.78;;;11.90;99.90;;;;;;5041562;28;20041;-86
2022/08/07 00:22:49;;;;;;;13.30;6.25;;;11.90;99.90;;;;;;5017151;28;20539;-86
2022/08/07 00:25:15;;;;;;;13.20;6.38;;;11.90;99.90;;;;;;5033712;28;20046;-86
2022/08/07 00:27:41;;;;;;;13.68;6.05;;;11.90;99.90;;;;;;5014672;28;20080;-86
2022/08/07 00:30:08;;;;;;;11.77;5.68;;;11.80;99.90;;;;;;5015232;28;20088;-86
2022/08/07 00:32:34;;;;;;;13.60;6.38;;;11.80;99.90;;;;;;5015182;28;20045;-86
2022/08/07 00:34:59;;;;;;;15.07;6.78;;;11.70;99.90;;;;;;5014197;28;20144;-86
2022/08/07 00:37:25;;;;;;;12.18;6.13;;;11.70;99.90;;;;;;5017266;28;20045;-86
2022/08/07 00:39:53;;;;;;;13.85;6.20;;;11.60;99.90;;;;;;5034030;28;20064;-86
2022/08/07 00:42:19;;;;;;;13.20;7.03;;;11.60;99.90;;;;;;5020330;28;20049;-85
2022/08/07 00:44:44;;;;;;;14.68;6.68;;;11.60;99.90;;;;;;5032228;28;20045;-86
2022/08/07 00:47:10;;;;;;;12.27;6.03;;;11.50;99.90;;;;;;5014862;28;20056;-86
2022/08/07 00:49:36;;;;;;;14.20;6.85;;;12.30;99.90;;;;;;5031865;28;20041;-86
2022/08/07 00:52:05;;;;;;;13.77;6.75;;;11.50;99.90;;;;;;5032189;28;20037;-86
2022/08/07 00:54:31;;;;;;;13.57;7.32;;;11.50;99.90;;;;;;5014750;28;20103;-86
2022/08/07 00:56:57;;;;;;;13.85;6.95;;;11.40;99.90;;;;;;5031410;28;20072;-86
2022/08/07 00:59:23;;;;;;;16.25;7.13;;;11.90;99.90;;;;;;5032383;28;20071;-86
2022/08/07 01:01:49;;;;;;;13.65;7.28;;;11.40;99.90;;;;;;5014300;28;20049;-86
2022/08/07 01:04:19;;;;;;;15.13;7.20;;;11.40;99.90;;;;;;5031620;28;20137;-86
2022/08/07 01:06:45;;;;;;;13.73;7.00;;;11.30;99.90;;;;;;5029314;28;20053;-86
2022/08/07 01:09:11;;;;;;;13.75;7.18;;;11.70;99.90;;;;;;5030277;28;20115;-86
2022/08/07 01:11:37;;;;;;;14.18;7.07;;;11.30;99.90;;;;;;5028730;28;20081;-86
2022/08/07 01:14:03;;;;;;;13.82;7.03;;;11.30;99.90;;;;;;5029827;28;20140;-86
2022/08/07 01:16:29;;;;;;;13.65;6.70;;;11.30;99.90;;;;;;5029974;28;20049;-86
2022/08/07 01:18:55;;;;;;;16.08;7.07;;;11.20;99.90;;;;;;5012390;28;20053;-86
2022/08/07 01:21:23;;;;;;;13.27;6.68;;;11.30;99.90;;;;;;5013278;28;20045;-86
2022/08/07 01:23:50;;;;;;;15.10;7.53;;;11.20;99.90;;;;;;5012168;28;20042;-86
2022/08/07 01:26:19;;;;;;;15.02;7.25;;;11.50;99.90;;;;;;5029777;28;20058;-86
2022/08/07 01:28:47;;;;;;;14.30;6.78;;;11.80;99.90;;;;;;5013297;28;20053;-86
2022/08/07 01:31:14;;;;;;;15.32;7.18;;;11.20;99.90;;;;;;5033135;28;20047;-86
2022/08/07 01:33:40;;;;;;;13.98;7.22;;;11.20;99.90;;;;;;5030048;28;20056;-85
2022/08/07 01:36:08;;;;;;;13.10;6.53;;;11.10;99.90;;;;;;5029553;28;20046;-86
2022/08/07 01:38:34;;;;;;;15.43;7.35;;;11.10;99.90;;;;;;5030879;28;20053;-86
2022/08/07 01:41:02;;;;;;;15.75;7.57;;;11.10;99.90;;;;;;5035512;28;20037;-86
2022/08/07 01:43:29;;;;;;;14.63;6.63;;;11.10;99.90;;;;;;5014404;28;20140;-86
2022/08/07 01:45:56;;;;;;;15.80;7.22;;;11.10;99.90;;;;;;5013278;28;20079;-86
2022/08/07 01:48:23;;;;;;;15.18;7.70;;;11.10;99.90;;;;;;5014169;28;20049;-85
2022/08/07 01:50:54;;;;;;;14.73;7.40;;;11.10;99.90;;;;;;5013898;28;20049;-86
2022/08/07 01:53:22;;;;;;;16.48;8.05;;;11.10;99.90;;;;;;5013459;28;20041;-86
2022/08/07 01:56:04;;;;;;;15.20;7.10;;;11.00;99.90;;;;;;5013728;28;20050;-86
2022/08/07 01:58:33;;;;;;;14.80;7.10;;;11.70;99.90;;;;;;5036669;28;20481;-85
2022/08/07 02:01:07;;;;;;;15.98;7.18;;;11.00;99.90;;;;;;5007645;28;20076;-86
2022/08/07 02:03:36;;;;;;;15.63;7.65;;;11.00;99.90;;;;;;4995309;28;20050;-86
2022/08/07 02:06:06;;;;;;;15.07;6.97;;;11.00;99.90;;;;;;4996550;28;20045;-86
2022/08/07 02:08:36;;;;;;;14.75;7.35;;;11.10;99.90;;;;;;4997147;28;20058;-86
2022/08/07 02:11:04;;;;;;;15.00;7.50;;;11.10;99.90;;;;;;4997896;28;20053;-86
2022/08/07 02:13:32;;;;;;;14.73;7.30;;;11.20;99.90;;;;;;4997001;28;20069;-86
2022/08/07 02:16:01;;;;;;;13.80;7.63;;;11.20;99.90;;;;;;5015397;28;20058;-86
2022/08/07 02:18:30;;;;;;;15.18;7.30;;;11.20;99.90;;;;;;5015587;28;20363;-85
2022/08/07 02:20:59;;;;;;;16.98;7.78;;;11.30;99.90;;;;;;5014611;28;20132;-86
2022/08/07 02:23:25;;;;;;;16.52;7.93;;;11.30;99.90;;;;;;4998004;28;20088;-85
2022/08/07 02:25:53;;;;;;;17.30;8.25;;;11.30;99.90;;;;;;5015018;28;20137;-86
2022/08/07 02:28:20;;;;;;;16.52;8.20;;;11.30;99.90;;;;;;4996815;28;20038;-86
2022/08/07 02:30:47;;;;;;;14.35;7.47;;;11.30;99.90;;;;;;5014843;28;20042;-86
2022/08/07 02:33:14;;;;;;;16.67;8.27;;;11.30;99.90;;;;;;4997333;28;20046;-86
2022/08/07 02:35:41;;;;;;;14.80;7.57;;;11.30;99.90;;;;;;4996913;28;20459;-86
2022/08/07 02:38:09;;;;;;;15.60;7.70;;;11.30;99.90;;;;;;5015014;28;20089;-86
2022/08/07 02:40:37;;;;;;;15.40;8.63;;;11.20;99.90;;;;;;4997474;28;20062;-86
2022/08/07 02:43:04;;;;;;;14.52;8.00;;;11.20;99.90;;;;;;5014176;28;20042;-86
2022/08/07 02:45:32;;;;;;;15.30;7.85;;;11.10;99.90;;;;;;5027850;28;20080;-85
2022/08/07 02:47:57;;;;;;;17.58;8.35;;;11.10;99.90;;;;;;5048178;28;20038;-85
2022/08/07 02:50:23;;;;;;;14.85;7.55;;;11.00;99.90;;;;;;5037917;28;20049;-86
2022/08/07 02:52:57;;;;;;;15.50;6.82;;;11.00;99.90;;;;;;5034670;28;20033;-86
2022/08/07 02:55:28;;;;;;;;;;;10.90;99.90;;;;;;5016499;28;20041;-86
2022/08/07 02:57:57;;;;;;;16.45;7.40;;;10.90;99.90;;;;;;5016685;28;19921;-86
2022/08/07 03:00:25;;;;;;;15.90;7.05;;;10.90;99.90;;;;;;5034395;28;20076;-86
2022/08/07 03:02:52;;;;;;;16.13;8.13;;;11.60;99.90;;;;;;5033609;28;20045;-86
2022/08/07 03:05:18;;;;;;;14.50;7.70;;;10.80;99.90;;;;;;5034489;28;20054;-86
2022/08/07 03:07:46;;;;;;;16.45;8.73;;;10.70;99.90;;;;;;5034028;28;20485;-86
2022/08/07 03:10:12;;;;;;;16.38;8.10;;;10.70;99.90;;;;;;5015790;28;20064;-86
2022/08/07 03:12:38;;;;;;;16.13;8.27;;;10.70;99.90;;;;;;5034161;28;20049;-86
2022/08/07 03:15:05;;;;;;;15.68;7.53;;;10.60;99.90;;;;;;5029322;28;20069;-86
2022/08/07 03:17:32;;;;;;;16.58;7.78;;;10.60;99.90;;;;;;5058586;28;20028;-85
2022/08/07 03:19:58;;;;;;;19.17;8.65;;;10.60;99.90;;;;;;5039089;28;20397;-85
2022/08/07 03:22:24;;;;;;;16.77;8.32;;;10.60;99.90;;;;;;5039543;28;20053;-86
2022/08/07 03:24:50;;;;;;;15.95;7.88;;;10.50;99.90;;;;;;5033888;28;20089;-86
2022/08/07 03:27:17;;;;;;;16.30;8.27;;;10.50;99.90;;;;;;5019482;28;20509;-86
2022/08/07 03:29:51;;;;;;;19.48;8.57;;;10.50;99.90;;;;;;5015958;28;20091;-86
2022/08/07 03:32:21;;;;;;;16.63;7.53;;;10.50;99.90;;;;;;5015384;28;20046;-86
2022/08/07 03:34:50;;;;;;;18.25;8.82;;;10.50;99.90;;;;;;5017200;28;20128;-86
2022/08/07 03:37:20;;;;;;;15.38;7.68;;;10.50;99.90;;;;;;5019014;28;20100;-86
2022/08/07 03:39:47;;;;;;;15.98;7.63;;;10.40;99.90;;;;;;5015702;28;20049;-86
2022/08/07 03:42:16;;;;;;;17.15;7.90;;;10.40;99.90;;;;;;5033548;28;20050;-85
2022/08/07 03:44:42;;;;;;;14.73;7.28;;;10.40;99.90;;;;;;5015402;28;20053;-86
2022/08/07 03:47:10;;;;;;;15.68;7.72;;;10.30;99.90;;;;;;5033830;28;20053;-86
2022/08/07 03:49:35;;;;;;;16.52;7.88;;;10.30;99.90;;;;;;5015811;28;20056;-86
2022/08/07 03:52:02;;;;;;;17.75;8.02;;;10.30;99.90;;;;;;5032184;28;20045;-86
2022/08/07 03:54:27;;;;;;;17.63;8.30;;;10.30;99.90;;;;;;5015391;28;20037;-86
2022/08/07 03:56:55;;;;;;;18.05;9.07;;;10.30;99.90;;;;;;5015611;28;20042;-86
2022/08/07 03:59:21;;;;;;;16.27;8.45;;;10.30;99.90;;;;;;5032650;28;20047;-86
2022/08/07 04:01:47;;;;;;;17.50;8.15;;;10.30;99.90;;;;;;5019208;28;20049;-86
2022/08/07 04:04:17;;;;;;;18.30;8.48;;;10.30;99.90;;;;;;5012469;28;20507;-86
2022/08/07 04:06:43;;;;;;;15.95;7.70;;;10.30;99.90;;;;;;5023004;28;20042;-86
2022/08/07 04:09:10;;;;;;;17.30;7.93;;;10.30;99.90;;;;;;5033089;28;20073;-86
2022/08/07 04:11:39;;;;;;;15.27;7.78;;;10.30;99.90;;;;;;5015376;28;20088;-86
2022/08/07 04:14:06;;;;;;;17.48;8.27;;;10.30;99.90;;;;;;5031786;28;20141;-85
2022/08/07 04:16:32;;;;;;;16.13;8.45;;;10.20;99.90;;;;;;5032972;28;20050;-86
2022/08/07 04:18:59;;;;;;;15.73;8.23;;;10.20;99.90;;;;;;5033031;28;20045;-86
2022/08/07 04:21:25;;;;;;;17.60;8.15;;;10.20;99.90;;;;;;5014501;28;20037;-86
2022/08/07 04:23:51;;;;;;;18.67;7.85;;;10.20;99.90;;;;;;5018610;28;20075;-85
2022/08/07 04:26:17;;;;;;;17.90;8.35;;;10.30;99.90;;;;;;5028615;28;20048;-86
2022/08/07 04:28:44;;;;;;;16.00;7.78;;;10.30;99.90;;;;;;5032478;28;20041;-86
2022/08/07 04:31:10;;;;;;;19.15;8.65;;;10.30;99.90;;;;;;5032778;28;20049;-86
2022/08/07 04:33:36;;;;;;;18.20;8.60;;;10.30;99.90;;;;;;5037059;28;20048;-85
2022/08/07 04:36:03;;;;;;;18.92;8.10;;;10.30;99.90;;;;;;5014500;28;20037;-86
2022/08/07 04:38:29;;;;;;;16.88;7.68;;;10.40;99.90;;;;;;5032814;28;20056;-86
2022/08/07 04:40:55;;;;;;;17.48;8.80;;;10.40;99.90;;;;;;5013791;28;20045;-86
2022/08/07 04:43:27;;;;;;;16.67;8.10;;;10.40;99.90;;;;;;5032953;28;20048;-86
2022/08/07 04:46:19;;;;;;;20.63;8.75;;;10.50;99.90;;;;;;5014502;28;20050;-85
2022/08/07 04:49:19;;;;;;;20.67;9.05;;;10.50;99.90;;;;;;5013545;28;20047;-86
2022/08/07 04:52:06;;;;;;;19.33;9.05;;;10.50;99.90;;;;;;5014689;28;20049;-86
2022/08/07 04:54:44;;;;;;;16.85;8.35;;;10.60;99.90;;;;;;5014785;28;20092;-86
2022/08/07 04:57:10;;;;;;;20.20;9.15;;;10.70;99.90;;;;;;5014650;28;20096;-86
2022/08/07 04:59:58;;;;;;;18.40;8.75;;;10.60;99.90;;;;;;5032845;28;20350;-86
2022/08/07 05:02:49;;;;;;;19.58;9.82;;;10.70;99.90;;;;;;5031615;28;20432;-86
2022/08/07 05:05:18;;;;;;;19.25;9.20;;;10.70;99.90;;;;;;4987346;28;20061;-85
2022/08/07 05:07:55;;;;;;;18.98;9.13;;;10.80;99.90;;;;;;5032234;28;20041;-86
2022/08/07 05:10:47;;;;;;;17.90;9.10;;;10.90;99.90;;;;;;5013932;28;20049;-86
2022/08/07 05:13:35;;;;;;;20.02;9.40;;;10.90;99.90;;;;;;5007858;28;20505;-86
2022/08/07 05:16:08;;;;;;;18.65;9.00;;;11.00;99.90;;;;;;5031418;28;20103;-86
2022/08/07 05:18:39;;;;;;;17.00;8.77;;;11.10;99.90;;;;;;5014612;28;20072;-86
2022/08/07 05:21:08;;;;;;;20.60;8.55;;;11.10;99.90;;;;;;5018025;28;20091;-86
2022/08/07 05:23:52;;;;;;;19.23;9.32;;;11.30;99.90;;;;;;5013873;28;20060;-86
2022/08/07 05:26:21;;;;;;;19.13;8.70;;;11.40;99.90;;;;;;5014972;28;20124;-86
2022/08/07 05:28:50;;;;;;;20.25;9.30;;;11.40;99.90;;;;;;5014348;28;20444;-86
2022/08/07 05:31:18;;;;;;;19.05;9.57;;;12.40;99.90;;;;;;5041400;23;20460;-86
2022/08/07 05:33:46;;;;;;;21.90;10.02;;;12.10;99.90;;;;;;5014550;28;20397;-86
2022/08/07 05:36:12;;;;;;;21.38;9.98;;;11.80;99.90;;;;;;5014564;28;20084;-86
2022/08/07 05:38:40;;;;;;;19.25;10.02;;;11.90;99.90;;;;;;5017349;28;20049;-86
2022/08/07 05:41:07;;;;;;;19.13;9.73;;;12.00;99.90;;;;;;5019759;28;20037;-86
2022/08/07 05:43:33;;;;;;;20.25;9.15;;;12.10;99.90;;;;;;5019649;28;20401;-86
2022/08/07 05:46:01;;;;;;;20.83;10.02;;;12.20;99.90;;;;;;5017561;28;20605;-86
2022/08/07 05:48:28;;;;;;;21.20;10.75;;;12.20;99.90;;;;;;5036121;28;20098;-86
2022/08/07 05:50:58;;;;;;;21.20;9.95;;;12.40;99.90;;;;;;5022127;28;20049;-86
2022/08/07 05:53:24;;;;;;;21.00;10.77;;;12.40;99.90;;;;;;5018927;28;20045;-87
2022/08/07 05:55:51;;;;;;;23.23;11.30;;;12.50;99.90;;;;;;5035659;28;20389;-81
2022/08/07 05:58:17;;;;;;;20.52;10.63;;;12.60;99.90;;;;;;5034945;28;20369;-81
2022/08/07 06:00:47;;;;;;;21.65;10.82;;;13.00;99.90;;;;;;5019062;28;20420;-82
2022/08/07 06:03:14;;;;;;;21.92;11.18;;;12.90;99.90;;;;;;5037540;28;20353;-81
2022/08/07 06:05:41;;;;;;;23.40;11.05;;;13.40;99.90;;;;;;5016455;28;20045;-82
2022/08/07 06:08:08;;;;;;;23.60;11.32;;;13.20;99.90;;;;;;5035066;28;20358;-81
2022/08/07 06:10:35;;;;;;;19.65;10.23;;;13.30;99.90;;;;;;5016085;28;20095;-82
2022/08/07 06:13:01;;;;;;;22.67;11.15;;;13.40;99.90;;;;;;5029084;28;20084;-81
2022/08/07 06:15:28;;;;;;;21.75;10.05;;;13.50;99.90;;;;;;5036056;28;20061;-81
2022/08/07 06:17:54;;;;;;;21.10;10.60;;;13.60;99.90;;;;;;5017351;28;20045;-81
2022/08/07 06:20:21;;;;;;;22.02;10.50;;;13.60;99.90;;;;;;5034326;28;20081;-82
2022/08/07 06:22:49;;;;;;;20.15;10.27;;;13.70;99.90;;;;;;5034546;28;20497;-83
2022/08/07 06:25:14;;;;;;;19.00;9.75;;;13.80;99.90;;;;;;5035001;28;20523;-81
2022/08/07 06:27:40;;;;;;;20.77;10.35;;;13.90;99.90;;;;;;5030771;28;20045;-80
2022/08/07 06:30:07;;;;;;;18.90;9.95;;;14.00;99.90;;;;;;5005680;28;20058;-81
2022/08/07 06:32:32;;;;;;;20.27;9.93;;;14.10;99.90;;;;;;5003620;28;20045;-82
2022/08/07 06:35:02;;;;;;;20.25;10.50;;;14.10;99.90;;;;;;5004611;28;20114;-83
2022/08/07 06:37:27;;;;;;;17.77;9.77;;;14.20;99.90;;;;;;5022944;28;20520;-82
2022/08/07 06:39:53;;;;;;;17.70;9.93;;;14.30;99.90;;;;;;5015624;28;20038;-83
2022/08/07 06:42:35;;;;;;;19.00;9.63;;;14.40;99.90;;;;;;4999062;28;20053;-83
2022/08/07 06:45:02;;;;;;;17.48;9.02;;;15.20;99.90;;;;;;5001949;28;20507;-83
2022/08/07 06:47:28;;;;;;;15.77;8.52;;;14.70;99.90;;;;;;5005994;28;20041;-82
2022/08/07 06:49:54;;;;;;;17.63;8.60;;;15.10;99.90;;;;;;5006496;28;20175;-83
2022/08/07 06:52:21;;;;;;;14.63;8.13;;;14.90;99.90;;;;;;5005467;28;20401;-82
2022/08/07 06:54:50;;;;;;;18.67;8.30;;;15.70;99.90;;;;;;5005568;28;20038;-80
2022/08/07 06:57:16;;;;;;;16.33;7.70;;;15.10;99.90;;;;;;5007384;28;20071;-81
2022/08/07 06:59:44;;;;;;;16.45;8.23;;;16.10;99.90;;;;;;5020503;28;20381;-81
2022/08/07 07:02:20;;;;;;;16.10;7.93;;;15.40;99.90;;;;;;5001037;28;20507;-82
2022/08/07 07:04:47;;;;;;;15.77;7.65;;;15.50;99.90;;;;;;5009623;28;20060;-82
2022/08/07 07:07:13;;;;;;;14.40;7.80;;;15.70;99.90;;;;;;5026889;28;20044;-82
2022/08/07 07:09:49;;;;;;;14.82;7.50;;;15.80;99.90;;;;;;5003761;28;20068;-82
2022/08/07 07:12:39;;;;;;;14.38;7.47;;;16.00;99.90;;;;;;5006882;28;20385;-82
2022/08/07 07:15:13;;;;;;;13.80;7.13;;;16.20;99.90;;;;;;5005904;28;20512;-82
2022/08/07 07:18:08;;;;;;;12.93;7.32;;;16.30;99.90;;;;;;5006709;28;20049;-82
2022/08/07 07:21:09;;;;;;;13.57;7.05;;;16.40;99.90;;;;;;5009609;28;20064;-83
2022/08/07 07:23:35;;;;;;;13.15;6.72;;;16.60;99.90;;;;;;4993583;28;20447;-83
2022/08/07 07:26:04;;;;;;;13.90;6.28;;;16.80;99.90;;;;;;5015281;28;20124;-82
2022/08/07 07:28:42;;;;;;;14.65;7.20;;;16.90;99.90;;;;;;5020966;28;20556;-82
2022/08/07 07:31:31;;;;;;;15.95;7.15;;;17.20;99.90;;;;;;5021395;28;20046;-82
2022/08/07 07:34:02;;;;;;;13.98;6.88;;;17.40;99.90;;;;;;5013875;28;20433;-83
2022/08/07 07:36:28;;;;;;;13.05;6.55;;;17.40;99.90;;;;;;4996332;28;20048;-82
2022/08/07 07:38:54;;;;;;;13.93;7.25;;;17.40;99.90;;;;;;5013499;28;20052;-82
2022/08/07 07:41:22;;;;;;;12.45;6.68;;;17.50;99.90;;;;;;5012932;28;20058;-83
2022/08/07 07:43:51;;;;;;;12.18;6.63;;;17.90;99.90;;;;;;5032494;28;20389;-82
2022/08/07 07:46:17;;;;;;;12.02;7.00;;;18.10;99.90;;;;;;5015591;28;20044;-82
2022/08/07 07:48:46;;;;;;;14.20;6.75;;;17.70;99.90;;;;;;5015751;28;20502;-82
2022/08/07 07:51:14;;;;;;;13.70;7.07;;;18.10;99.90;;;;;;5014975;28;20089;-82
2022/08/07 07:53:43;;;;;;;11.48;5.65;;;17.90;99.90;;;;;;5015874;28;20046;-82
2022/08/07 07:56:11;;;;;;;12.38;6.20;;;18.00;99.90;;;;;;5033251;28;20053;-82
2022/08/07 07:58:39;;;;;;;11.52;6.25;;;18.10;99.90;;;;;;5015161;28;20527;-82
2022/08/07 08:01:06;;;;;;;12.45;6.25;;;18.30;99.90;;;;;;5032471;28;20048;-82
2022/08/07 08:03:34;;;;;;;13.25;6.70;;;18.30;99.90;;;;;;5015550;28;20127;-83
2022/08/07 08:06:00;;;;;;;13.30;6.47;;;18.40;99.90;;;;;;5032108;28;20037;-85
2022/08/07 08:08:31;;;;;;;12.57;6.75;;;18.50;99.90;;;;;;5015163;28;20108;-86
2022/08/07 08:11:02;;;;;;;12.82;7.28;;;18.70;99.90;;;;;;5033143;28;20038;-86
2022/08/07 08:13:29;;;;;;;12.75;6.93;;;18.70;99.90;;;;;;5014942;28;20132;-85
2022/08/07 08:16:00;;;;;;;12.07;6.78;;;18.70;99.90;;;;;;5014764;28;20136;-84
2022/08/07 08:18:28;;;;;;;12.65;6.63;;;18.80;99.90;;;;;;5033079;28;20077;-84
2022/08/07 08:20:59;;;;;;;13.63;7.20;;;18.80;99.90;;;;;;5031560;28;20038;-84
2022/08/07 08:29:01;;;;;;;11.60;6.53;;;19.20;99.90;;;;;;5007754;28;20042;-84
2022/08/07 08:31:32;;;;;;;10.80;6.13;;;19.70;99.90;;;;;;5022339;28;20564;-87
2022/08/07 08:34:00;;;;;;;11.93;6.63;;;19.40;99.90;;;;;;5031703;28;20406;-83
2022/08/07 08:36:29;;;;;;;12.90;6.20;;;19.50;99.90;;;;;;5032365;28;20541;-85
2022/08/07 08:38:58;;;;;;;13.48;6.22;;;19.50;99.90;;;;;;5014895;28;20401;-88
2022/08/07 08:41:29;;;;;;;12.00;5.97;;;19.60;99.90;;;;;;5031860;28;20042;-85
2022/08/07 08:44:04;;;;;;;10.88;5.30;;;19.80;99.90;;;;;;5032445;28;20049;-82
2022/08/07 08:46:43;;;;;;;11.38;5.97;;;20.10;99.90;;;;;;5014830;28;20053;-84
2022/08/07 08:49:08;;;;;;;12.15;6.30;;;20.10;99.90;;;;;;5013831;28;20038;-83
2022/08/07 08:51:46;;;;;;;12.23;6.38;;;20.50;99.90;;;;;;5014625;28;20048;-83
2022/08/07 08:54:30;;;;;;;11.43;5.78;;;20.10;99.90;;;;;;5031597;28;20107;-83
2022/08/07 08:56:58;;;;;;;12.10;5.45;;;20.10;99.90;;;;;;5014635;28;20042;-83
2022/08/07 08:59:35;;;;;;;10.50;5.43;;;20.20;99.90;;;;;;5015012;28;20406;-81
2022/08/07 09:02:29;;;;;;;11.40;5.28;;;20.40;99.90;;;;;;5031528;28;20110;-80
2022/08/07 09:05:07;;;;;;;12.57;5.50;;;20.50;99.90;;;;;;5013936;28;20091;-80
2022/08/07 09:07:48;;;;;;;10.80;5.03;;;20.70;99.90;;;;;;5014687;28;20042;-80
2022/08/07 09:10:26;;;;;;;10.90;5.22;;;20.70;99.90;;;;;;5013697;28;20053;-80
2022/08/07 09:13:20;;;;;;;11.15;5.18;;;20.90;99.90;;;;;;5019723;28;20111;-80
2022/08/07 09:16:07;;;;;;;10.70;5.00;;;20.90;99.90;;;;;;5007372;28;20452;-81
2022/08/07 09:18:49;;;;;;;11.57;5.20;;;21.10;99.90;;;;;;5021060;28;20091;-80
2022/08/07 09:21:29;;;;;;;11.57;5.10;;;21.10;99.90;;;;;;5038945;28;20121;-80
2022/08/07 09:24:30;;;;;;;10.43;4.88;;;21.20;99.90;;;;;;5037561;28;20041;-80
2022/08/07 09:27:07;;;;;;;10.32;5.40;;;21.20;99.90;;;;;;5020462;28;20136;-80
2022/08/07 09:29:48;;;;;;;10.07;5.40;;;21.10;99.90;;;;;;5037669;28;20087;-82
2022/08/07 09:32:51;;;;;;;11.75;5.25;;;21.10;99.90;;;;;;5038641;28;20057;-81
2022/08/07 09:35:46;;;;;;;9.70;5.00;;;21.20;99.90;;;;;;5038662;28;20051;-83
2022/08/07 09:38:34;;;;;;;11.80;5.38;;;21.50;99.90;;;;;;5037725;28;20041;-83
2022/08/07 09:41:15;;;;;;;9.82;4.97;;;21.70;99.70;;;;;;5038377;28;20076;-84
2022/08/07 09:43:46;;;;;;;9.88;4.90;;;21.80;99.90;;;;;;5038166;28;20033;-83
2022/08/07 09:46:37;;;;;;;11.27;4.72;;;21.70;99.90;;;;;;5038702;28;20107;-83
2022/08/07 09:49:47;;;;;;;10.15;4.72;;;21.30;99.90;;;;;;5038402;28;20116;-83
2022/08/07 09:52:35;;;;;;;11.13;4.45;;;21.40;99.90;;;;;;5037630;28;20501;-83
2022/08/07 09:55:04;;;;;;;12.85;4.60;;;21.40;99.90;;;;;;5020283;28;20065;-83
2022/08/07 09:57:33;;;;;;;9.80;4.30;;;21.90;99.90;;;;;;5037611;28;20057;-84
2022/08/07 10:00:13;;;;;;;8.95;3.92;;;21.60;99.90;;;;;;5020419;28;20374;-84
2022/08/07 10:03:00;;;;;;;9.55;4.13;;;21.60;99.90;;;;;;5038711;28;20496;-83
2022/08/07 10:05:47;;;;;;;10.32;4.53;;;21.50;99.00;;;;;;5020057;28;20099;-83
2022/08/07 10:08:37;;;;;;;9.68;4.45;;;21.30;99.90;;;;;;5038131;28;20041;-83
2022/08/07 10:11:44;;;;;;;10.35;4.00;;;21.40;99.30;;;;;;5020118;28;20512;-83
2022/08/07 10:14:34;;;;;;;8.27;3.50;;;21.60;97.30;;;;;;5020005;28;20048;-83
2022/08/07 10:17:24;;;;;;;7.93;3.40;;;21.50;96.80;;;;;;5020461;28;20140;-83
2022/08/07 10:20:23;;;;;;;10.05;4.05;;;21.70;98.80;;;;;;5009678;28;20394;-83
2022/08/07 10:23:23;;;;;;;9.80;3.90;;;21.80;96.80;;;;;;5008562;28;20475;-83
2022/08/07 10:25:56;;;;;;;8.55;3.97;;;22.10;97.50;;;;;;5006105;28;20116;-82
2022/08/07 10:28:58;;;;;;;8.15;2.97;;;22.60;98.20;;;;;;5005900;28;20168;-81
2022/08/07 10:31:52;;;;;;;7.97;2.97;;;22.80;95.40;;;;;;5033605;28;20064;-81
2022/08/07 10:34:23;;;;;;;8.30;3.10;;;22.50;95.60;;;;;;5032913;28;20052;-81
2022/08/07 10:37:14;;;;;;;8.90;3.80;;;22.10;95.30;;;;;;5032668;28;20046;-82
2022/08/07 10:40:16;;;;;;;8.68;3.50;;;21.80;95.60;;;;;;5013961;28;20049;-82
2022/08/07 10:43:00;;;;;;;8.55;3.25;;;21.90;95.50;;;;;;5032975;28;20508;-82
2022/08/07 10:45:37;;;;;;;8.43;3.45;;;22.30;95.10;;;;;;5016112;28;20087;-84
2022/08/07 10:48:15;;;;;;;9.45;3.50;;;22.70;95.70;;;;;;5014063;28;20401;-85
2022/08/07 10:50:58;;;;;;;8.30;2.97;;;23.20;94.60;;;;;;5033125;28;20135;-85
2022/08/07 10:53:35;;;;;;;7.25;2.90;;;23.50;94.60;;;;;;5012646;28;20049;-85
2022/08/07 10:56:21;;;;;;;8.98;3.40;;;24.00;93.80;;;;;;5014966;28;20503;-85
2022/08/07 10:58:56;;;;;;;9.82;3.53;;;23.70;92.60;;;;;;5013832;28;20053;-85
2022/08/07 11:01:31;;;;;;;8.57;3.50;;;23.10;93.80;;;;;;5031560;28;20405;-87
2022/08/07 11:04:27;;;;;;;8.18;3.30;;;22.70;93.60;;;;;;5030202;28;20037;-89
2022/08/07 11:07:17;;;;;;;7.82;3.10;;;22.30;93.10;;;;;;5024418;28;20049;-85
2022/08/07 11:09:54;;;;;;;9.18;3.72;;;22.10;94.70;;;;;;5022826;28;20053;-85
2022/08/07 11:12:33;;;;;;;14.82;3.40;;;22.70;94.80;;;;;;5008565;28;20405;-86
2022/08/07 11:15:03;;;;;;;8.60;3.33;;;23.10;93.80;;;;;;5016327;28;20132;-85
2022/08/07 11:17:40;;;;;;;8.82;3.67;;;23.60;93.70;;;;;;5034521;28;20041;-84
2022/08/07 11:20:16;;;;;;;8.23;3.20;;;22.90;93.80;;;;;;5034033;28;20041;-84
2022/08/07 11:22:48;;;;;;;9.00;3.30;;;23.10;93.80;;;;;;5033656;28;20100;-85
2022/08/07 11:25:33;;;;;;;8.82;3.20;;;23.20;93.60;;;;;;5016053;28;20055;-82
2022/08/07 11:28:20;;;;;;;9.52;3.47;;;23.60;93.40;;;;;;5015999;28;20049;-85
2022/08/07 11:30:52;;;;;;;7.65;3.15;;;23.80;91.50;;;;;;5013774;28;20064;-84
2022/08/07 11:33:42;;;;;;;14.77;3.30;;;24.00;92.50;;;;;;5033037;28;20052;-84
2022/08/07 11:36:23;;;;;;;9.95;2.95;;;24.10;92.00;;;;;;5012657;28;20080;-84
2022/08/07 11:39:07;;;;;;;8.85;3.08;;;24.00;91.80;;;;;;5014441;28;20560;-82
2022/08/07 11:41:43;;;;;;;8.27;2.95;;;24.30;91.90;;;;;;5012219;28;20133;-82
2022/08/07 11:44:19;;;;;;;7.90;3.10;;;24.50;91.70;;;;;;5031902;28;20045;-82
2022/08/07 11:47:15;;;;;;;7.03;2.88;;;24.70;90.90;;;;;;5014395;28;20042;-82
2022/08/07 11:49:51;;;;;;;7.47;2.78;;;24.80;90.20;;;;;;5012968;28;20073;-83
2022/08/07 11:52:32;;;;;;;8.88;3.08;;;25.10;91.30;;;;;;5013627;28;20149;-82
2022/08/07 11:55:29;;;;;;;7.65;3.10;;;25.30;90.70;;;;;;5032404;28;20081;-82
2022/08/07 11:58:28;;;;;;;8.48;3.22;;;25.00;87.60;;;;;;5031551;28;20129;-83
2022/08/07 12:01:07;;;;;;;7.38;2.95;;;24.90;87.30;;;;;;5032665;28;20064;-82
2022/08/07 12:03:56;;;;;;;12.38;3.10;;;25.10;89.10;;;;;;5012329;28;20049;-82
2022/08/07 12:06:27;;;;;;;8.38;3.10;;;25.30;89.40;;;;;;5013673;28;20050;-82
2022/08/07 12:09:06;;;;;;;7.57;2.83;;;25.40;90.00;;;;;;5032621;28;20049;-82
2022/08/07 12:11:38;;;;;;;7.63;2.97;;;25.20;88.70;;;;;;5011580;28;20477;-81
2022/08/07 12:14:09;;;;;;;8.60;2.85;;;25.10;88.00;;;;;;5021999;28;20046;-82
2022/08/07 12:16:43;;;;;;;9.07;3.15;;;24.80;88.50;;;;;;5030404;28;20096;-82
2022/08/07 12:19:17;;;;;;;7.97;2.90;;;24.40;87.70;;;;;;5028080;28;20037;-83
2022/08/07 12:22:22;;;;;;;7.40;2.75;;;23.90;87.70;;;;;;5008792;28;20132;-82
2022/08/07 12:27:58;;;;;;;;;;;23.00;87.70;;;;;;5031876;28;20050;-82
2022/08/07 12:30:28;;;;;;;8.23;3.00;;;22.80;89.00;;;;;;5013055;28;19925;-83
2022/08/07 12:33:00;;;;;;;8.45;2.80;;;23.40;89.50;;;;;;5031137;28;20069;-83
2022/08/07 12:35:29;;;;;;;7.15;2.78;;;23.70;88.40;;;;;;5032127;28;20132;-82
2022/08/07 12:37:58;;;;;;;7.22;3.00;;;24.10;88.80;;;;;;5031687;28;20029;-83
2022/08/07 12:40:35;;;;;;;7.88;2.70;;;24.30;88.20;;;;;;5010273;28;20376;-83
2022/08/07 12:43:03;;;;;;;9.10;3.42;;;24.80;88.40;;;;;;5010508;28;20038;-82
2022/08/07 12:46:01;;;;;;;8.25;2.85;;;25.00;87.60;;;;;;5030341;28;20056;-83
2022/08/07 12:48:52;;;;;;;7.72;2.92;;;25.40;87.30;;;;;;5025714;28;20041;-84
2022/08/07 12:51:20;;;;;;;7.85;2.80;;;26.00;86.50;;;;;;5013353;28;20053;-83
2022/08/07 12:53:59;;;;;;;9.35;2.83;;;26.20;86.20;;;;;;5030477;28;20047;-84
2022/08/07 12:56:29;;;;;;;7.45;2.50;;;26.60;85.10;;;;;;5027690;28;20136;-86
2022/08/07 12:58:56;;;;;;;7.20;2.60;;;26.60;84.50;;;;;;5031533;28;20095;-83
2022/08/07 13:01:25;;;;;;;6.80;2.53;;;26.60;84.30;;;;;;5030880;28;20041;-84
2022/08/07 13:04:09;;;;;;;7.57;2.80;;;26.60;84.50;;;;;;5013930;28;20163;-84
2022/08/07 13:07:09;;;;;;;7.28;2.85;;;26.00;81.80;;;;;;5031670;28;20604;-84
2022/08/07 13:09:44;;;;;;;8.32;3.03;;;25.70;83.80;;;;;;5014288;28;20064;-84
2022/08/07 13:12:20;;;;;;;7.28;2.80;;;25.50;84.90;;;;;;5014404;28;20061;-84
2022/08/07 13:15:21;;;;;;;7.03;2.78;;;25.20;84.40;;;;;;5013863;28;20052;-85
2022/08/07 13:18:01;;;;;;;7.55;2.70;;;25.00;84.20;;;;;;5032378;28;20049;-84